Airfield :







YOU CAN JOIN US ON...

 
LOGIN :

Register | Disclaimer

   EN    FR    IT 

 









Legend :    VFR   Marginal VFR   IFR   Intensive IFR   Very Intensive IFR
Visi :
Ceiling :
>= 8 km
>= 3000ft
5 to 8 km
1000 to 3000 ft
1500m to 5 km
500 to 1000 ft
800 to 1500m
200 to 500 ft
< 800m
< 200 ft
Symbols :   Thunderstorms  Fog  Heavy snow  Heavy precipitations  Wind > 20 kt






- Airport Elevation : 110 ft
- IATA code : YFB


CYFB - Iqaluit

CURRENT METAR :
  • 090800Z 28004KT 30SM FEW045 FEW240 08/04 A2969 RMK SC1CI1 SC TR CI TR SLP058

EXPIRED METARs :
  • 090700Z 31007KT 15SM FEW045 FEW240 09/05 A2968 RMK SC1CI1 SC TR CI TR SLP053
  • 090600Z 31007KT 15SM FEW045 09/05 A2967 RMK SC1 SC TR SLP052

TAF TAF CYFB
Valid from the 09 at 06:00 until the 10 at 06:00 UTC


090540Z 0906/1006 30005KT P6SM FEW040
FM091000 VRB03KT P6SM FEW020 SCT060
FM091500 15006KT P6SM FEW040 BKN070 RMK NXT FCST BY 091200Z
CZUL FIR / North America



MET'MAP, your aeronautical weather chart ! - Copyright ORBIFLY December 2007 - Disclaimer

ORBIFLY MET'MAP TEAM :

Programming & Development : Alexandra Zaïnal
Original concept : Baudouin d'Aumeries
Technical & hardware support : Manuel Goepfert
Assistance : Marc-Olivier Méhu




SOURCES & CREDITS :

   NOAA